sensor_id;sensor_type;location;lat;lon;timestamp;P1;durP1;ratioP1;P2;durP2;ratioP2
4786;SDS011;62338;48.832;9.422;2022-10-19T00:00:05;49.10;;;25.03;;
4786;SDS011;62338;48.832;9.422;2022-10-19T00:02:07;53.87;;;25.90;;
4786;SDS011;62338;48.832;9.422;2022-10-19T00:04:09;53.10;;;25.50;;
4786;SDS011;62338;48.832;9.422;2022-10-19T00:06:21;50.13;;;25.90;;
4786;SDS011;62338;48.832;9.422;2022-10-19T00:08:28;51.93;;;25.60;;
4786;SDS011;62338;48.832;9.422;2022-10-19T00:10:29;61.37;;;26.47;;
4786;SDS011;62338;48.832;9.422;2022-10-19T00:12:32;53.80;;;25.63;;
4786;SDS011;62338;48.832;9.422;2022-10-19T00:14:34;55.77;;;25.87;;
4786;SDS011;62338;48.832;9.422;2022-10-19T00:16:36;55.70;;;25.03;;
4786;SDS011;62338;48.832;9.422;2022-10-19T00:18:38;61.93;;;26.60;;
4786;SDS011;62338;48.832;9.422;2022-10-19T00:20:43;56.07;;;26.07;;
4786;SDS011;62338;48.832;9.422;2022-10-19T00:22:47;60.60;;;28.70;;
4786;SDS011;62338;48.832;9.422;2022-10-19T00:24:50;72.80;;;29.27;;
4786;SDS011;62338;48.832;9.422;2022-10-19T00:26:51;71.33;;;28.60;;
4786;SDS011;62338;48.832;9.422;2022-10-19T00:28:54;65.67;;;29.20;;
4786;SDS011;62338;48.832;9.422;2022-10-19T00:30:57;79.33;;;30.07;;
4786;SDS011;62338;48.832;9.422;2022-10-19T00:33:03;82.67;;;31.80;;
4786;SDS011;62338;48.832;9.422;2022-10-19T00:35:05;90.27;;;37.07;;
4786;SDS011;62338;48.832;9.422;2022-10-19T00:37:07;94.40;;;36.07;;
4786;SDS011;62338;48.832;9.422;2022-10-19T00:39:10;104.40;;;39.90;;
4786;SDS011;62338;48.832;9.422;2022-10-19T00:41:13;106.03;;;39.50;;
4786;SDS011;62338;48.832;9.422;2022-10-19T00:43:17;102.40;;;40.07;;
4786;SDS011;62338;48.832;9.422;2022-10-19T00:45:20;107.83;;;41.20;;
4786;SDS011;62338;48.832;9.422;2022-10-19T00:47:22;118.17;;;42.00;;
4786;SDS011;62338;48.832;9.422;2022-10-19T00:49:25;140.93;;;43.60;;
4786;SDS011;62338;48.832;9.422;2022-10-19T00:51:33;290.23;;;44.80;;
4786;SDS011;62338;48.832;9.422;2022-10-19T00:53:37;286.43;;;47.00;;
4786;SDS011;62338;48.832;9.422;2022-10-19T00:55:39;162.03;;;40.57;;
4786;SDS011;62338;48.832;9.422;2022-10-19T00:57:42;150.73;;;40.03;;
4786;SDS011;62338;48.832;9.422;2022-10-19T00:59:45;124.50;;;39.73;;
4786;SDS011;62338;48.832;9.422;2022-10-19T01:01:47;216.43;;;46.23;;
4786;SDS011;62338;48.832;9.422;2022-10-19T01:03:49;156.83;;;42.87;;
4786;SDS011;62338;48.832;9.422;2022-10-19T01:05:51;140.57;;;42.40;;
4786;SDS011;62338;48.832;9.422;2022-10-19T01:07:53;106.57;;;40.00;;
4786;SDS011;62338;48.832;9.422;2022-10-19T01:09:57;109.07;;;41.90;;
4786;SDS011;62338;48.832;9.422;2022-10-19T01:12:07;111.03;;;39.97;;
4786;SDS011;62338;48.832;9.422;2022-10-19T01:21:34;130.57;;;45.03;;
4786;SDS011;62338;48.832;9.422;2022-10-19T01:27:04;117.70;;;39.87;;
4786;SDS011;62338;48.832;9.422;2022-10-19T01:31:57;124.00;;;42.20;;
4786;SDS011;62338;48.832;9.422;2022-10-19T01:34:07;125.17;;;42.60;;
4786;SDS011;62338;48.832;9.422;2022-10-19T01:36:17;140.87;;;44.07;;
4786;SDS011;62338;48.832;9.422;2022-10-19T01:41:29;133.53;;;43.83;;
4786;SDS011;62338;48.832;9.422;2022-10-19T01:43:57;126.17;;;42.73;;
4786;SDS011;62338;48.832;9.422;2022-10-19T01:46:39;140.17;;;43.57;;
4786;SDS011;62338;48.832;9.422;2022-10-19T01:48:46;148.97;;;45.60;;
4786;SDS011;62338;48.832;9.422;2022-10-19T01:50:56;145.03;;;47.10;;
4786;SDS011;62338;48.832;9.422;2022-10-19T01:53:05;128.67;;;43.17;;
4786;SDS011;62338;48.832;9.422;2022-10-19T01:55:10;152.47;;;47.50;;
4786;SDS011;62338;48.832;9.422;2022-10-19T01:57:16;166.27;;;47.43;;
4786;SDS011;62338;48.832;9.422;2022-10-19T01:59:22;154.97;;;46.67;;
4786;SDS011;62338;48.832;9.422;2022-10-19T02:01:26;131.47;;;43.80;;
4786;SDS011;62338;48.832;9.422;2022-10-19T02:03:32;135.07;;;44.90;;
4786;SDS011;62338;48.832;9.422;2022-10-19T02:05:35;131.47;;;43.77;;
4786;SDS011;62338;48.832;9.422;2022-10-19T02:07:39;105.50;;;38.87;;
4786;SDS011;62338;48.832;9.422;2022-10-19T02:09:44;109.83;;;37.83;;
4786;SDS011;62338;48.832;9.422;2022-10-19T02:11:53;93.67;;;36.60;;
4786;SDS011;62338;48.832;9.422;2022-10-19T02:13:58;90.13;;;35.40;;
4786;SDS011;62338;48.832;9.422;2022-10-19T02:16:05;78.90;;;31.67;;
4786;SDS011;62338;48.832;9.422;2022-10-19T02:18:12;80.17;;;33.03;;
4786;SDS011;62338;48.832;9.422;2022-10-19T02:20:17;76.83;;;30.83;;
4786;SDS011;62338;48.832;9.422;2022-10-19T02:22:20;62.40;;;29.40;;
4786;SDS011;62338;48.832;9.422;2022-10-19T02:24:22;61.37;;;27.70;;
4786;SDS011;62338;48.832;9.422;2022-10-19T02:26:24;61.23;;;27.03;;
4786;SDS011;62338;48.832;9.422;2022-10-19T02:28:26;53.60;;;25.50;;
4786;SDS011;62338;48.832;9.422;2022-10-19T02:30:29;51.30;;;25.47;;
4786;SDS011;62338;48.832;9.422;2022-10-19T02:32:31;52.33;;;25.13;;
4786;SDS011;62338;48.832;9.422;2022-10-19T02:34:34;48.10;;;23.70;;
4786;SDS011;62338;48.832;9.422;2022-10-19T02:36:37;38.27;;;20.70;;
4786;SDS011;62338;48.832;9.422;2022-10-19T02:38:39;42.90;;;20.37;;
4786;SDS011;62338;48.832;9.422;2022-10-19T02:40:42;35.40;;;20.47;;
4786;SDS011;62338;48.832;9.422;2022-10-19T02:42:57;43.40;;;20.10;;
4786;SDS011;62338;48.832;9.422;2022-10-19T02:47:20;40.57;;;20.40;;
4786;SDS011;62338;48.832;9.422;2022-10-19T02:49:43;40.50;;;20.93;;
4786;SDS011;62338;48.832;9.422;2022-10-19T02:51:57;36.20;;;20.73;;
4786;SDS011;62338;48.832;9.422;2022-10-19T02:54:05;32.80;;;19.40;;
4786;SDS011;62338;48.832;9.422;2022-10-19T02:56:08;41.93;;;19.50;;
4786;SDS011;62338;48.832;9.422;2022-10-19T02:58:09;34.00;;;18.63;;
4786;SDS011;62338;48.832;9.422;2022-10-19T03:00:11;34.23;;;19.10;;
4786;SDS011;62338;48.832;9.422;2022-10-19T03:02:14;36.80;;;19.53;;
4786;SDS011;62338;48.832;9.422;2022-10-19T03:04:17;36.53;;;19.20;;
4786;SDS011;62338;48.832;9.422;2022-10-19T03:06:19;40.73;;;20.13;;
4786;SDS011;62338;48.832;9.422;2022-10-19T03:08:20;33.07;;;18.60;;
4786;SDS011;62338;48.832;9.422;2022-10-19T03:10:22;35.17;;;19.83;;
4786;SDS011;62338;48.832;9.422;2022-10-19T03:12:24;31.17;;;17.47;;
4786;SDS011;62338;48.832;9.422;2022-10-19T03:14:26;32.17;;;19.30;;
4786;SDS011;62338;48.832;9.422;2022-10-19T03:16:27;40.60;;;19.47;;
4786;SDS011;62338;48.832;9.422;2022-10-19T03:18:29;34.00;;;19.87;;
4786;SDS011;62338;48.832;9.422;2022-10-19T03:20:31;45.00;;;20.37;;
4786;SDS011;62338;48.832;9.422;2022-10-19T03:22:32;36.07;;;19.00;;
4786;SDS011;62338;48.832;9.422;2022-10-19T03:24:34;44.40;;;21.13;;
4786;SDS011;62338;48.832;9.422;2022-10-19T03:26:36;40.70;;;21.23;;
4786;SDS011;62338;48.832;9.422;2022-10-19T03:28:37;43.13;;;20.70;;
4786;SDS011;62338;48.832;9.422;2022-10-19T03:30:39;41.00;;;20.67;;
4786;SDS011;62338;48.832;9.422;2022-10-19T03:32:41;42.13;;;21.03;;
4786;SDS011;62338;48.832;9.422;2022-10-19T03:34:43;49.07;;;22.00;;
4786;SDS011;62338;48.832;9.422;2022-10-19T03:36:45;48.33;;;22.60;;
4786;SDS011;62338;48.832;9.422;2022-10-19T03:38:50;53.90;;;23.67;;
4786;SDS011;62338;48.832;9.422;2022-10-19T03:40:59;50.90;;;24.10;;
4786;SDS011;62338;48.832;9.422;2022-10-19T03:43:00;63.40;;;26.43;;
4786;SDS011;62338;48.832;9.422;2022-10-19T03:45:02;63.40;;;26.00;;
4786;SDS011;62338;48.832;9.422;2022-10-19T03:47:04;60.20;;;24.67;;
4786;SDS011;62338;48.832;9.422;2022-10-19T03:49:06;61.27;;;26.87;;
4786;SDS011;62338;48.832;9.422;2022-10-19T03:51:15;61.17;;;25.50;;
4786;SDS011;62338;48.832;9.422;2022-10-19T03:53:18;63.60;;;25.53;;
4786;SDS011;62338;48.832;9.422;2022-10-19T03:55:20;68.20;;;27.13;;
4786;SDS011;62338;48.832;9.422;2022-10-19T03:57:21;61.93;;;25.13;;
4786;SDS011;62338;48.832;9.422;2022-10-19T03:59:23;58.67;;;24.97;;
4786;SDS011;62338;48.832;9.422;2022-10-19T04:01:26;68.17;;;27.33;;
4786;SDS011;62338;48.832;9.422;2022-10-19T04:03:28;69.90;;;25.63;;
4786;SDS011;62338;48.832;9.422;2022-10-19T04:05:30;74.20;;;28.73;;
4786;SDS011;62338;48.832;9.422;2022-10-19T04:07:32;86.03;;;29.63;;
4786;SDS011;62338;48.832;9.422;2022-10-19T04:09:34;103.43;;;28.93;;
4786;SDS011;62338;48.832;9.422;2022-10-19T04:11:36;72.93;;;28.27;;
4786;SDS011;62338;48.832;9.422;2022-10-19T04:13:38;77.67;;;27.97;;
4786;SDS011;62338;48.832;9.422;2022-10-19T04:15:40;67.23;;;26.07;;
4786;SDS011;62338;48.832;9.422;2022-10-19T04:17:42;65.20;;;27.83;;
4786;SDS011;62338;48.832;9.422;2022-10-19T04:19:48;79.97;;;30.43;;
4786;SDS011;62338;48.832;9.422;2022-10-19T04:21:50;76.40;;;28.70;;
4786;SDS011;62338;48.832;9.422;2022-10-19T04:23:52;75.40;;;28.83;;
4786;SDS011;62338;48.832;9.422;2022-10-19T04:25:59;86.03;;;29.47;;
4786;SDS011;62338;48.832;9.422;2022-10-19T04:28:05;71.80;;;27.07;;
4786;SDS011;62338;48.832;9.422;2022-10-19T04:30:07;86.07;;;29.50;;
4786;SDS011;62338;48.832;9.422;2022-10-19T04:32:09;83.03;;;28.90;;
4786;SDS011;62338;48.832;9.422;2022-10-19T04:34:11;81.60;;;27.90;;
4786;SDS011;62338;48.832;9.422;2022-10-19T04:36:12;67.77;;;27.07;;
4786;SDS011;62338;48.832;9.422;2022-10-19T04:38:14;80.07;;;29.90;;
4786;SDS011;62338;48.832;9.422;2022-10-19T04:40:16;69.83;;;26.63;;
4786;SDS011;62338;48.832;9.422;2022-10-19T04:42:17;84.40;;;28.00;;
4786;SDS011;62338;48.832;9.422;2022-10-19T04:44:19;85.70;;;27.43;;
4786;SDS011;62338;48.832;9.422;2022-10-19T04:46:21;82.00;;;28.60;;
4786;SDS011;62338;48.832;9.422;2022-10-19T04:48:23;85.80;;;29.40;;
4786;SDS011;62338;48.832;9.422;2022-10-19T04:50:24;82.00;;;30.40;;
4786;SDS011;62338;48.832;9.422;2022-10-19T04:52:26;93.87;;;30.77;;
4786;SDS011;62338;48.832;9.422;2022-10-19T04:54:28;88.97;;;28.50;;
4786;SDS011;62338;48.832;9.422;2022-10-19T04:56:30;89.37;;;30.00;;
4786;SDS011;62338;48.832;9.422;2022-10-19T04:58:32;80.53;;;30.13;;
4786;SDS011;62338;48.832;9.422;2022-10-19T05:00:36;74.90;;;27.70;;
4786;SDS011;62338;48.832;9.422;2022-10-19T05:02:41;77.73;;;26.70;;
4786;SDS011;62338;48.832;9.422;2022-10-19T05:04:46;79.47;;;29.50;;
4786;SDS011;62338;48.832;9.422;2022-10-19T05:06:48;62.70;;;25.73;;
4786;SDS011;62338;48.832;9.422;2022-10-19T05:08:50;68.07;;;26.53;;
4786;SDS011;62338;48.832;9.422;2022-10-19T05:10:52;71.57;;;27.20;;
4786;SDS011;62338;48.832;9.422;2022-10-19T05:12:54;71.73;;;26.43;;
4786;SDS011;62338;48.832;9.422;2022-10-19T05:14:55;55.30;;;24.30;;
4786;SDS011;62338;48.832;9.422;2022-10-19T05:16:57;56.97;;;24.70;;
4786;SDS011;62338;48.832;9.422;2022-10-19T05:18:59;57.50;;;24.43;;
4786;SDS011;62338;48.832;9.422;2022-10-19T05:23:06;58.20;;;24.40;;
4786;SDS011;62338;48.832;9.422;2022-10-19T05:25:08;55.10;;;24.20;;
4786;SDS011;62338;48.832;9.422;2022-10-19T05:27:09;52.17;;;23.97;;
4786;SDS011;62338;48.832;9.422;2022-10-19T05:29:11;48.80;;;22.93;;
4786;SDS011;62338;48.832;9.422;2022-10-19T05:31:14;54.73;;;24.00;;
4786;SDS011;62338;48.832;9.422;2022-10-19T05:33:18;49.83;;;23.07;;
4786;SDS011;62338;48.832;9.422;2022-10-19T05:35:19;52.43;;;22.60;;
4786;SDS011;62338;48.832;9.422;2022-10-19T05:37:23;45.13;;;22.13;;
4786;SDS011;62338;48.832;9.422;2022-10-19T05:39:25;51.13;;;23.47;;
4786;SDS011;62338;48.832;9.422;2022-10-19T05:41:27;50.30;;;23.20;;
4786;SDS011;62338;48.832;9.422;2022-10-19T05:43:29;50.10;;;22.40;;
4786;SDS011;62338;48.832;9.422;2022-10-19T05:45:30;50.67;;;24.47;;
4786;SDS011;62338;48.832;9.422;2022-10-19T05:47:33;57.27;;;24.67;;
4786;SDS011;62338;48.832;9.422;2022-10-19T05:49:35;55.03;;;22.37;;
4786;SDS011;62338;48.832;9.422;2022-10-19T05:51:37;47.53;;;22.83;;
4786;SDS011;62338;48.832;9.422;2022-10-19T05:53:39;52.50;;;23.87;;
4786;SDS011;62338;48.832;9.422;2022-10-19T05:55:42;54.37;;;23.77;;
4786;SDS011;62338;48.832;9.422;2022-10-19T05:57:44;54.73;;;22.70;;
4786;SDS011;62338;48.832;9.422;2022-10-19T05:59:45;55.03;;;22.20;;
4786;SDS011;62338;48.832;9.422;2022-10-19T06:01:47;45.93;;;22.07;;
4786;SDS011;62338;48.832;9.422;2022-10-19T06:03:50;51.10;;;23.30;;
4786;SDS011;62338;48.832;9.422;2022-10-19T06:05:54;54.33;;;23.43;;
4786;SDS011;62338;48.832;9.422;2022-10-19T06:07:56;56.23;;;25.40;;
4786;SDS011;62338;48.832;9.422;2022-10-19T06:09:58;56.27;;;23.23;;
4786;SDS011;62338;48.832;9.422;2022-10-19T06:11:59;55.40;;;23.97;;
4786;SDS011;62338;48.832;9.422;2022-10-19T06:14:02;65.50;;;27.10;;
4786;SDS011;62338;48.832;9.422;2022-10-19T06:16:06;57.03;;;24.10;;
4786;SDS011;62338;48.832;9.422;2022-10-19T06:18:10;58.70;;;25.03;;
4786;SDS011;62338;48.832;9.422;2022-10-19T06:20:13;50.77;;;24.33;;
4786;SDS011;62338;48.832;9.422;2022-10-19T06:22:14;53.97;;;25.47;;
4786;SDS011;62338;48.832;9.422;2022-10-19T06:24:16;49.20;;;23.43;;
4786;SDS011;62338;48.832;9.422;2022-10-19T06:26:18;51.33;;;24.37;;
4786;SDS011;62338;48.832;9.422;2022-10-19T06:28:20;41.93;;;22.57;;
4786;SDS011;62338;48.832;9.422;2022-10-19T06:30:22;45.53;;;22.10;;
4786;SDS011;62338;48.832;9.422;2022-10-19T06:32:24;54.23;;;22.47;;
4786;SDS011;62338;48.832;9.422;2022-10-19T06:34:25;39.10;;;19.73;;
4786;SDS011;62338;48.832;9.422;2022-10-19T06:36:28;40.60;;;22.17;;
4786;SDS011;62338;48.832;9.422;2022-10-19T06:38:30;39.30;;;21.20;;
4786;SDS011;62338;48.832;9.422;2022-10-19T06:40:33;41.13;;;20.53;;
4786;SDS011;62338;48.832;9.422;2022-10-19T06:42:35;41.37;;;21.17;;
4786;SDS011;62338;48.832;9.422;2022-10-19T06:44:40;36.10;;;21.13;;
4786;SDS011;62338;48.832;9.422;2022-10-19T06:46:42;39.50;;;20.63;;
4786;SDS011;62338;48.832;9.422;2022-10-19T06:48:43;35.17;;;19.03;;
4786;SDS011;62338;48.832;9.422;2022-10-19T06:50:56;34.57;;;19.47;;
4786;SDS011;62338;48.832;9.422;2022-10-19T06:52:58;35.10;;;18.70;;
4786;SDS011;62338;48.832;9.422;2022-10-19T06:55:00;27.37;;;16.70;;
4786;SDS011;62338;48.832;9.422;2022-10-19T06:57:02;29.83;;;18.00;;
4786;SDS011;62338;48.832;9.422;2022-10-19T06:59:04;27.03;;;17.33;;
4786;SDS011;62338;48.832;9.422;2022-10-19T07:01:06;26.00;;;15.60;;
4786;SDS011;62338;48.832;9.422;2022-10-19T07:03:08;23.97;;;15.67;;
4786;SDS011;62338;48.832;9.422;2022-10-19T07:05:10;27.87;;;15.50;;
4786;SDS011;62338;48.832;9.422;2022-10-19T07:07:12;23.67;;;14.53;;
4786;SDS011;62338;48.832;9.422;2022-10-19T07:09:13;21.60;;;14.43;;
4786;SDS011;62338;48.832;9.422;2022-10-19T07:11:16;23.87;;;14.00;;
4786;SDS011;62338;48.832;9.422;2022-10-19T07:13:19;24.07;;;14.90;;
4786;SDS011;62338;48.832;9.422;2022-10-19T07:15:21;22.60;;;14.70;;
4786;SDS011;62338;48.832;9.422;2022-10-19T07:17:23;22.63;;;13.40;;
4786;SDS011;62338;48.832;9.422;2022-10-19T07:19:25;24.07;;;15.70;;
4786;SDS011;62338;48.832;9.422;2022-10-19T07:21:27;21.80;;;14.03;;
4786;SDS011;62338;48.832;9.422;2022-10-19T07:23:29;25.30;;;15.27;;
4786;SDS011;62338;48.832;9.422;2022-10-19T07:25:32;21.93;;;14.57;;
4786;SDS011;62338;48.832;9.422;2022-10-19T07:27:34;19.23;;;13.47;;
4786;SDS011;62338;48.832;9.422;2022-10-19T07:29:38;19.43;;;12.73;;
4786;SDS011;62338;48.832;9.422;2022-10-19T07:31:39;22.50;;;14.03;;
4786;SDS011;62338;48.832;9.422;2022-10-19T07:33:41;25.33;;;14.43;;
4786;SDS011;62338;48.832;9.422;2022-10-19T07:35:44;23.83;;;12.73;;
4786;SDS011;62338;48.832;9.422;2022-10-19T07:37:45;19.47;;;13.40;;
4786;SDS011;62338;48.832;9.422;2022-10-19T07:39:47;20.20;;;11.70;;
4786;SDS011;62338;48.832;9.422;2022-10-19T07:41:49;19.00;;;12.03;;
4786;SDS011;62338;48.832;9.422;2022-10-19T07:43:50;18.90;;;12.73;;
4786;SDS011;62338;48.832;9.422;2022-10-19T07:45:57;16.13;;;11.40;;
4786;SDS011;62338;48.832;9.422;2022-10-19T07:47:59;17.47;;;12.77;;
4786;SDS011;62338;48.832;9.422;2022-10-19T07:50:01;14.43;;;11.20;;
4786;SDS011;62338;48.832;9.422;2022-10-19T07:52:03;18.53;;;9.83;;
4786;SDS011;62338;48.832;9.422;2022-10-19T07:54:05;18.90;;;12.83;;
4786;SDS011;62338;48.832;9.422;2022-10-19T07:56:08;14.57;;;10.40;;
4786;SDS011;62338;48.832;9.422;2022-10-19T07:58:12;14.30;;;9.80;;
4786;SDS011;62338;48.832;9.422;2022-10-19T08:00:14;18.30;;;10.30;;
4786;SDS011;62338;48.832;9.422;2022-10-19T08:02:17;18.30;;;10.17;;
4786;SDS011;62338;48.832;9.422;2022-10-19T08:04:20;19.00;;;10.63;;
4786;SDS011;62338;48.832;9.422;2022-10-19T08:06:42;18.13;;;10.93;;
4786;SDS011;62338;48.832;9.422;2022-10-19T08:08:44;12.73;;;9.63;;
4786;SDS011;62338;48.832;9.422;2022-10-19T08:10:46;14.67;;;10.03;;
4786;SDS011;62338;48.832;9.422;2022-10-19T08:12:48;22.50;;;11.60;;
4786;SDS011;62338;48.832;9.422;2022-10-19T08:14:49;17.07;;;10.70;;
4786;SDS011;62338;48.832;9.422;2022-10-19T08:16:51;18.97;;;10.53;;
4786;SDS011;62338;48.832;9.422;2022-10-19T08:18:57;14.00;;;9.53;;
4786;SDS011;62338;48.832;9.422;2022-10-19T08:21:03;15.10;;;10.70;;
4786;SDS011;62338;48.832;9.422;2022-10-19T08:23:05;16.60;;;10.53;;
4786;SDS011;62338;48.832;9.422;2022-10-19T08:25:07;22.10;;;9.67;;
4786;SDS011;62338;48.832;9.422;2022-10-19T08:27:08;15.53;;;10.20;;
4786;SDS011;62338;48.832;9.422;2022-10-19T08:29:11;17.43;;;9.53;;
4786;SDS011;62338;48.832;9.422;2022-10-19T08:31:16;15.73;;;9.87;;
4786;SDS011;62338;48.832;9.422;2022-10-19T08:33:20;12.27;;;8.23;;
4786;SDS011;62338;48.832;9.422;2022-10-19T08:35:21;12.00;;;7.70;;
4786;SDS011;62338;48.832;9.422;2022-10-19T08:37:23;12.30;;;7.40;;
4786;SDS011;62338;48.832;9.422;2022-10-19T08:39:44;9.23;;;6.70;;
4786;SDS011;62338;48.832;9.422;2022-10-19T08:46:43;11.00;;;6.03;;
4786;SDS011;62338;48.832;9.422;2022-10-19T08:49:14;10.03;;;6.30;;
4786;SDS011;62338;48.832;9.422;2022-10-19T08:51:20;13.90;;;6.47;;
4786;SDS011;62338;48.832;9.422;2022-10-19T08:53:35;12.70;;;5.30;;
4786;SDS011;62338;48.832;9.422;2022-10-19T08:55:43;9.47;;;5.50;;
4786;SDS011;62338;48.832;9.422;2022-10-19T09:00:57;7.53;;;5.33;;
4786;SDS011;62338;48.832;9.422;2022-10-19T09:07:51;8.50;;;6.20;;
4786;SDS011;62338;48.832;9.422;2022-10-19T09:10:02;8.10;;;5.37;;
4786;SDS011;62338;48.832;9.422;2022-10-19T09:12:41;9.90;;;5.67;;
4786;SDS011;62338;48.832;9.422;2022-10-19T09:14:57;10.03;;;5.40;;
4786;SDS011;62338;48.832;9.422;2022-10-19T09:17:02;11.33;;;5.90;;
4786;SDS011;62338;48.832;9.422;2022-10-19T09:19:12;9.63;;;5.40;;
4786;SDS011;62338;48.832;9.422;2022-10-19T09:21:22;11.33;;;5.00;;
4786;SDS011;62338;48.832;9.422;2022-10-19T09:23:54;7.13;;;5.20;;
4786;SDS011;62338;48.832;9.422;2022-10-19T09:25:58;8.60;;;5.00;;
4786;SDS011;62338;48.832;9.422;2022-10-19T09:28:20;7.97;;;4.70;;
4786;SDS011;62338;48.832;9.422;2022-10-19T09:30:34;7.37;;;4.43;;
4786;SDS011;62338;48.832;9.422;2022-10-19T09:32:38;7.10;;;5.10;;
4786;SDS011;62338;48.832;9.422;2022-10-19T09:34:44;7.70;;;5.33;;
4786;SDS011;62338;48.832;9.422;2022-10-19T09:36:57;6.53;;;4.43;;
4786;SDS011;62338;48.832;9.422;2022-10-19T09:38:59;7.30;;;4.30;;
4786;SDS011;62338;48.832;9.422;2022-10-19T09:41:34;9.40;;;5.80;;
4786;SDS011;62338;48.832;9.422;2022-10-19T09:43:29;7.07;;;4.90;;
4786;SDS011;62338;48.832;9.422;2022-10-19T09:45:33;6.87;;;5.20;;
4786;SDS011;62338;48.832;9.422;2022-10-19T09:47:46;7.13;;;4.87;;
4786;SDS011;62338;48.832;9.422;2022-10-19T09:49:49;11.83;;;5.47;;
4786;SDS011;62338;48.832;9.422;2022-10-19T09:51:51;8.53;;;5.77;;
4786;SDS011;62338;48.832;9.422;2022-10-19T09:53:53;10.50;;;5.60;;
4786;SDS011;62338;48.832;9.422;2022-10-19T09:55:57;9.40;;;5.40;;
4786;SDS011;62338;48.832;9.422;2022-10-19T10:00:18;11.07;;;5.67;;
4786;SDS011;62338;48.832;9.422;2022-10-19T10:02:31;7.00;;;5.17;;
4786;SDS011;62338;48.832;9.422;2022-10-19T10:04:34;7.30;;;4.60;;
4786;SDS011;62338;48.832;9.422;2022-10-19T10:06:37;7.23;;;5.37;;
4786;SDS011;62338;48.832;9.422;2022-10-19T10:08:49;8.80;;;5.43;;
4786;SDS011;62338;48.832;9.422;2022-10-19T10:13:16;10.10;;;5.00;;
4786;SDS011;62338;48.832;9.422;2022-10-19T10:15:22;8.93;;;5.80;;
4786;SDS011;62338;48.832;9.422;2022-10-19T10:17:27;8.70;;;4.90;;
4786;SDS011;62338;48.832;9.422;2022-10-19T10:19:31;7.50;;;5.40;;
4786;SDS011;62338;48.832;9.422;2022-10-19T10:21:49;7.50;;;5.03;;
4786;SDS011;62338;48.832;9.422;2022-10-19T10:26:04;7.73;;;5.00;;
4786;SDS011;62338;48.832;9.422;2022-10-19T10:28:17;6.73;;;5.10;;
4786;SDS011;62338;48.832;9.422;2022-10-19T10:30:20;12.83;;;4.60;;
4786;SDS011;62338;48.832;9.422;2022-10-19T10:32:22;8.53;;;5.43;;
4786;SDS011;62338;48.832;9.422;2022-10-19T10:34:41;7.60;;;4.20;;
4786;SDS011;62338;48.832;9.422;2022-10-19T10:36:53;6.70;;;4.20;;
4786;SDS011;62338;48.832;9.422;2022-10-19T10:38:57;10.87;;;4.80;;
4786;SDS011;62338;48.832;9.422;2022-10-19T10:41:09;6.73;;;4.23;;
4786;SDS011;62338;48.832;9.422;2022-10-19T10:43:16;6.47;;;4.13;;
4786;SDS011;62338;48.832;9.422;2022-10-19T10:47:25;5.97;;;3.57;;
4786;SDS011;62338;48.832;9.422;2022-10-19T10:49:31;5.73;;;3.37;;
4786;SDS011;62338;48.832;9.422;2022-10-19T10:53:40;4.40;;;3.00;;
4786;SDS011;62338;48.832;9.422;2022-10-19T10:55:53;10.13;;;2.70;;
4786;SDS011;62338;48.832;9.422;2022-10-19T10:58:03;4.70;;;2.70;;
4786;SDS011;62338;48.832;9.422;2022-10-19T11:00:13;4.80;;;2.50;;
4786;SDS011;62338;48.832;9.422;2022-10-19T11:02:23;7.87;;;2.70;;
4786;SDS011;62338;48.832;9.422;2022-10-19T11:04:32;4.87;;;2.67;;
4786;SDS011;62338;48.832;9.422;2022-10-19T11:06:40;4.83;;;2.67;;
4786;SDS011;62338;48.832;9.422;2022-10-19T11:11:13;4.20;;;2.80;;
4786;SDS011;62338;48.832;9.422;2022-10-19T11:13:29;6.00;;;2.70;;
4786;SDS011;62338;48.832;9.422;2022-10-19T11:16:04;5.80;;;3.00;;
4786;SDS011;62338;48.832;9.422;2022-10-19T11:20:30;5.67;;;2.80;;
4786;SDS011;62338;48.832;9.422;2022-10-19T11:22:39;5.47;;;3.30;;
4786;SDS011;62338;48.832;9.422;2022-10-19T11:24:51;4.17;;;2.60;;
4786;SDS011;62338;48.832;9.422;2022-10-19T11:32:03;5.13;;;3.10;;
4786;SDS011;62338;48.832;9.422;2022-10-19T11:36:53;5.40;;;3.10;;
4786;SDS011;62338;48.832;9.422;2022-10-19T11:39:35;4.90;;;3.00;;
4786;SDS011;62338;48.832;9.422;2022-10-19T11:41:50;5.57;;;2.90;;
4786;SDS011;62338;48.832;9.422;2022-10-19T11:51:41;5.47;;;3.27;;
4786;SDS011;62338;48.832;9.422;2022-10-19T11:53:56;6.00;;;3.37;;
4786;SDS011;62338;48.832;9.422;2022-10-19T11:56:08;9.07;;;3.07;;
4786;SDS011;62338;48.832;9.422;2022-10-19T12:00:21;5.53;;;3.73;;
4786;SDS011;62338;48.832;9.422;2022-10-19T12:04:57;7.27;;;3.90;;
4786;SDS011;62338;48.832;9.422;2022-10-19T12:12:24;8.33;;;4.20;;
4786;SDS011;62338;48.832;9.422;2022-10-19T12:14:38;8.70;;;4.70;;
4786;SDS011;62338;48.832;9.422;2022-10-19T12:16:43;8.83;;;5.20;;
4786;SDS011;62338;48.832;9.422;2022-10-19T12:18:50;8.10;;;4.40;;
4786;SDS011;62338;48.832;9.422;2022-10-19T12:20:56;7.37;;;3.80;;
4786;SDS011;62338;48.832;9.422;2022-10-19T12:23:02;10.10;;;4.30;;
4786;SDS011;62338;48.832;9.422;2022-10-19T12:25:21;8.40;;;4.70;;
4786;SDS011;62338;48.832;9.422;2022-10-19T12:27:34;8.07;;;3.70;;
4786;SDS011;62338;48.832;9.422;2022-10-19T12:29:38;10.57;;;4.90;;
4786;SDS011;62338;48.832;9.422;2022-10-19T12:31:42;6.50;;;4.07;;
4786;SDS011;62338;48.832;9.422;2022-10-19T12:33:52;6.57;;;4.37;;
4786;SDS011;62338;48.832;9.422;2022-10-19T12:38:21;11.80;;;4.73;;
4786;SDS011;62338;48.832;9.422;2022-10-19T12:41:02;7.70;;;4.10;;
4786;SDS011;62338;48.832;9.422;2022-10-19T12:43:19;7.00;;;4.23;;
4786;SDS011;62338;48.832;9.422;2022-10-19T12:50:09;8.30;;;4.63;;
4786;SDS011;62338;48.832;9.422;2022-10-19T12:52:11;11.27;;;4.53;;
4786;SDS011;62338;48.832;9.422;2022-10-19T12:54:14;10.20;;;3.90;;
4786;SDS011;62338;48.832;9.422;2022-10-19T12:56:20;8.70;;;3.80;;
4786;SDS011;62338;48.832;9.422;2022-10-19T12:58:24;8.50;;;3.20;;
4786;SDS011;62338;48.832;9.422;2022-10-19T13:00:27;4.80;;;3.17;;
4786;SDS011;62338;48.832;9.422;2022-10-19T13:02:35;7.10;;;4.30;;
4786;SDS011;62338;48.832;9.422;2022-10-19T13:04:50;7.13;;;3.60;;
4786;SDS011;62338;48.832;9.422;2022-10-19T13:08:59;7.63;;;3.10;;
4786;SDS011;62338;48.832;9.422;2022-10-19T13:11:05;5.63;;;2.73;;
4786;SDS011;62338;48.832;9.422;2022-10-19T13:13:46;5.50;;;3.17;;
4786;SDS011;62338;48.832;9.422;2022-10-19T13:15:51;5.23;;;3.20;;
4786;SDS011;62338;48.832;9.422;2022-10-19T13:17:52;6.27;;;3.10;;
4786;SDS011;62338;48.832;9.422;2022-10-19T13:20:35;4.40;;;2.87;;
4786;SDS011;62338;48.832;9.422;2022-10-19T13:22:26;5.50;;;3.40;;
4786;SDS011;62338;48.832;9.422;2022-10-19T13:24:30;7.83;;;3.40;;
4786;SDS011;62338;48.832;9.422;2022-10-19T13:26:35;7.43;;;3.20;;
4786;SDS011;62338;48.832;9.422;2022-10-19T13:28:37;5.37;;;3.87;;
4786;SDS011;62338;48.832;9.422;2022-10-19T13:32:56;28.27;;;3.63;;
4786;SDS011;62338;48.832;9.422;2022-10-19T13:37:35;4.33;;;2.83;;
4786;SDS011;62338;48.832;9.422;2022-10-19T13:39:37;4.90;;;3.07;;
4786;SDS011;62338;48.832;9.422;2022-10-19T13:41:43;7.30;;;2.70;;
4786;SDS011;62338;48.832;9.422;2022-10-19T13:46:11;5.17;;;2.57;;
4786;SDS011;62338;48.832;9.422;2022-10-19T13:48:34;5.00;;;3.23;;
4786;SDS011;62338;48.832;9.422;2022-10-19T13:50:46;7.40;;;2.70;;
4786;SDS011;62338;48.832;9.422;2022-10-19T13:53:11;4.70;;;2.67;;
4786;SDS011;62338;48.832;9.422;2022-10-19T14:05:10;5.17;;;3.63;;
4786;SDS011;62338;48.832;9.422;2022-10-19T14:07:31;5.47;;;2.70;;
4786;SDS011;62338;48.832;9.422;2022-10-19T14:09:54;6.20;;;2.90;;
4786;SDS011;62338;48.832;9.422;2022-10-19T14:12:16;5.43;;;3.60;;